createdAt,value
2022-10-14T00:00:33.222Z,10.40
2022-10-14T00:03:00.257Z,11.45
2022-10-14T00:05:27.170Z,10.88
2022-10-14T00:07:54.114Z,11.13
2022-10-14T00:10:21.045Z,10.27
2022-10-14T00:12:48.012Z,10.88
2022-10-14T00:15:14.927Z,11.68
2022-10-14T00:17:41.885Z,10.23
2022-10-14T00:20:09.316Z,9.75
2022-10-14T00:22:36.267Z,10.30
2022-10-14T00:25:03.231Z,10.00
2022-10-14T00:27:30.617Z,11.35
2022-10-14T00:30:00.064Z,11.25
2022-10-14T00:32:27.199Z,11.00
2022-10-14T00:34:54.217Z,9.60
2022-10-14T00:37:21.286Z,9.70
2022-10-14T00:39:48.336Z,11.25
2022-10-14T00:42:16.194Z,12.00
2022-10-14T00:44:43.047Z,11.48
2022-10-14T00:47:10.038Z,11.60
2022-10-14T00:49:41.134Z,10.85
2022-10-14T00:52:13.909Z,12.07
2022-10-14T00:55:00.664Z,10.38
2022-10-14T00:57:27.735Z,9.85
2022-10-14T00:59:56.612Z,10.20
2022-10-14T01:02:23.666Z,10.38
2022-10-14T01:04:50.611Z,10.23
2022-10-14T01:07:39.055Z,10.40
2022-10-14T01:10:14.301Z,10.27
2022-10-14T01:13:03.095Z,9.60
2022-10-14T01:15:51.621Z,9.02
2022-10-14T01:18:37.458Z,10.07
2022-10-14T01:21:08.332Z,9.85
2022-10-14T01:24:05.288Z,10.30
2022-10-14T01:26:40.553Z,9.52
2022-10-14T01:29:38.292Z,9.73
2022-10-14T01:32:14.883Z,9.35
2022-10-14T01:34:45.121Z,8.57
2022-10-14T01:37:15.435Z,8.95
2022-10-14T01:39:48.161Z,8.90
2022-10-14T01:42:17.240Z,9.10
2022-10-14T01:44:46.900Z,10.10
2022-10-14T01:47:14.097Z,9.10
2022-10-14T01:49:53.862Z,9.38
2022-10-14T01:52:23.516Z,8.68
2022-10-14T01:54:52.529Z,8.48
2022-10-14T01:57:21.915Z,9.95
2022-10-14T01:59:48.940Z,8.65
2022-10-14T02:02:15.879Z,8.57
2022-10-14T02:04:42.852Z,9.13
2022-10-14T02:07:18.202Z,9.05
2022-10-14T02:10:11.562Z,9.05
2022-10-14T02:12:50.775Z,8.68
2022-10-14T02:15:31.775Z,9.38
2022-10-14T02:18:29.728Z,7.78
2022-10-14T02:21:19.403Z,8.30
2022-10-14T02:23:56.743Z,9.15
2022-10-14T02:26:24.805Z,8.30
2022-10-14T02:28:51.865Z,8.25
2022-10-14T02:31:19.758Z,8.23
2022-10-14T02:33:50.021Z,8.43
2022-10-14T02:36:18.113Z,7.75
2022-10-14T02:38:45.037Z,8.07
2022-10-14T02:41:14.176Z,8.82
2022-10-14T02:43:41.163Z,7.72
2022-10-14T02:46:08.220Z,8.98
2022-10-14T02:48:35.201Z,8.88
2022-10-14T02:51:02.885Z,8.90
2022-10-14T02:53:30.766Z,8.30
2022-10-14T02:55:59.443Z,8.90
2022-10-14T02:58:26.451Z,8.32
2022-10-14T03:00:56.350Z,8.85
2022-10-14T03:03:25.234Z,8.75
2022-10-14T03:05:52.165Z,9.80
2022-10-14T03:08:20.621Z,9.77
2022-10-14T03:10:48.604Z,9.27
2022-10-14T03:13:16.345Z,9.30
2022-10-14T03:15:49.632Z,8.70
2022-10-14T03:18:18.241Z,8.95
2022-10-14T03:20:47.802Z,9.27
2022-10-14T03:23:22.980Z,8.70
2022-10-14T03:25:53.073Z,9.50
2022-10-14T03:28:25.466Z,9.02
2022-10-14T03:31:10.301Z,9.57
2022-10-14T03:33:48.673Z,8.57
2022-10-14T03:36:18.397Z,8.73
2022-10-14T03:38:57.097Z,9.20
2022-10-14T03:41:34.336Z,9.63
2022-10-14T03:44:01.593Z,8.68
2022-10-14T03:46:28.549Z,8.60
2022-10-14T03:48:56.966Z,8.57
2022-10-14T03:51:26.206Z,10.07
2022-10-14T03:54:02.415Z,9.43
2022-10-14T03:59:25.770Z,9.82
2022-10-14T04:01:58.121Z,9.20
2022-10-14T04:04:25.813Z,10.13
2022-10-14T04:07:18.453Z,9.93
2022-10-14T04:09:52.733Z,10.30
2022-10-14T04:12:21.753Z,9.10
2022-10-14T04:14:58.408Z,8.45
2022-10-14T04:17:28.513Z,9.13
2022-10-14T04:20:05.224Z,9.05
2022-10-14T04:22:33.394Z,9.20
2022-10-14T04:25:00.743Z,8.95
2022-10-14T04:27:34.041Z,8.38
2022-10-14T04:30:44.580Z,8.93
2022-10-14T04:33:36.821Z,8.88
2022-10-14T04:36:29.595Z,8.50
2022-10-14T04:39:07.179Z,8.13
2022-10-14T04:41:45.631Z,9.07
2022-10-14T04:44:41.026Z,8.48
2022-10-14T04:47:18.397Z,7.40
2022-10-14T04:49:54.286Z,8.48
2022-10-14T04:52:27.743Z,8.68
2022-10-14T04:55:04.372Z,8.40
2022-10-14T04:57:43.096Z,7.93
2022-10-14T05:00:14.816Z,7.85
2022-10-14T05:03:00.163Z,7.90
2022-10-14T05:05:33.153Z,7.53
2022-10-14T05:08:25.847Z,7.95
2022-10-14T05:10:56.118Z,7.75
2022-10-14T05:13:40.220Z,7.72
2022-10-14T05:16:31.107Z,7.88
2022-10-14T05:18:58.425Z,7.30
2022-10-14T05:21:27.331Z,7.35
2022-10-14T05:24:20.152Z,7.35
2022-10-14T05:26:50.404Z,6.70
2022-10-14T05:29:37.842Z,6.93
2022-10-14T05:32:28.666Z,7.53
2022-10-14T05:35:03.842Z,6.80
2022-10-14T05:38:04.577Z,6.63
2022-10-14T05:41:13.001Z,6.55
2022-10-14T05:44:26.437Z,6.40
2022-10-14T05:47:14.272Z,5.95
2022-10-14T05:50:07.817Z,6.25
2022-10-14T05:52:44.375Z,6.38
2022-10-14T05:55:36.503Z,6.70
2022-10-14T05:58:04.422Z,5.72
2022-10-14T06:01:05.540Z,6.60
2022-10-14T06:04:05.068Z,5.70
2022-10-14T06:06:58.907Z,5.93
2022-10-14T06:09:51.323Z,5.70
2022-10-14T06:12:44.065Z,5.68
2022-10-14T06:15:41.973Z,6.23
2022-10-14T06:18:31.075Z,5.78
2022-10-14T06:21:18.628Z,5.63
2022-10-14T06:23:46.199Z,4.88
2022-10-14T06:26:17.115Z,5.50
2022-10-14T06:28:44.673Z,5.57
2022-10-14T06:34:28.031Z,5.72
2022-10-14T06:37:28.648Z,6.13
2022-10-14T06:39:59.953Z,5.57
2022-10-14T06:42:28.952Z,4.65
2022-10-14T06:45:07.945Z,5.20
2022-10-14T06:48:01.207Z,5.53
2022-10-14T06:50:29.092Z,6.22
2022-10-14T06:52:57.426Z,5.38
2022-10-14T06:55:52.985Z,6.45
2022-10-14T06:58:20.996Z,6.03
2022-10-14T07:00:49.819Z,5.90
2022-10-14T07:03:42.466Z,6.63
2022-10-14T07:06:11.396Z,6.03
2022-10-14T07:09:06.534Z,6.80
2022-10-14T07:11:35.299Z,6.85
2022-10-14T07:14:04.318Z,7.60
2022-10-14T07:16:35.392Z,6.80
2022-10-14T07:19:03.861Z,6.18
2022-10-14T07:24:47.410Z,7.07
2022-10-14T07:27:19.315Z,6.85
2022-10-14T07:29:47.232Z,7.05
2022-10-14T07:32:39.430Z,6.45
2022-10-14T07:35:33.674Z,6.88
2022-10-14T07:38:01.113Z,7.20
2022-10-14T07:43:52.021Z,7.93
2022-10-14T07:46:50.374Z,9.43
2022-10-14T07:49:50.233Z,8.23
2022-10-14T07:52:21.144Z,8.65
2022-10-14T07:55:12.266Z,7.72
2022-10-14T07:58:05.265Z,9.02
2022-10-14T08:00:53.958Z,8.07
2022-10-14T08:03:48.169Z,9.57
2022-10-14T08:06:35.593Z,8.15
2022-10-14T08:09:29.483Z,9.48
2022-10-14T08:15:15.904Z,9.05
2022-10-14T08:18:09.002Z,8.25
2022-10-14T08:30:29.991Z,9.23
2022-10-14T08:36:02.056Z,8.27
2022-10-14T08:38:53.015Z,7.47
2022-10-14T08:45:41.045Z,6.85
2022-10-14T08:52:41.311Z,6.38
2022-10-14T08:55:47.234Z,6.37
2022-10-14T08:58:43.926Z,6.20
2022-10-14T09:01:26.427Z,6.70
2022-10-14T09:03:57.988Z,5.55
2022-10-14T09:06:29.785Z,6.25
2022-10-14T09:09:12.595Z,5.03
2022-10-14T09:11:41.515Z,6.37
2022-10-14T09:14:09.946Z,5.45
2022-10-14T09:16:38.750Z,5.40
2022-10-14T09:19:08.670Z,6.35
2022-10-14T09:21:53.558Z,6.10
2022-10-14T09:24:25.817Z,5.47
2022-10-14T09:27:02.707Z,4.05
2022-10-14T09:29:35.884Z,2.80
2022-10-14T09:32:05.240Z,3.28
2022-10-14T09:34:40.343Z,3.67
2022-10-14T09:37:29.271Z,4.13
2022-10-14T09:40:12.798Z,4.30
2022-10-14T09:42:53.406Z,4.07
2022-10-14T09:45:22.791Z,3.70
2022-10-14T09:47:50.810Z,4.50
2022-10-14T09:50:31.381Z,4.10
2022-10-14T09:53:16.918Z,3.63
2022-10-14T09:55:52.793Z,4.13
2022-10-14T09:58:29.185Z,3.50
2022-10-14T10:00:57.379Z,3.35
2022-10-14T10:03:26.302Z,4.82
2022-10-14T10:06:00.973Z,4.68
2022-10-14T10:08:27.819Z,4.72
2022-10-14T10:11:03.766Z,5.22
2022-10-14T10:13:36.484Z,4.38
2022-10-14T10:16:04.792Z,3.50
2022-10-14T10:18:31.679Z,4.88
2022-10-14T10:21:20.467Z,3.72
2022-10-14T10:24:01.016Z,4.13
2022-10-14T10:26:33.546Z,4.03
2022-10-14T10:29:02.899Z,4.67
2022-10-14T10:31:47.133Z,5.07
2022-10-14T10:34:35.768Z,3.55
2022-10-14T10:37:25.393Z,3.28
2022-10-14T10:40:16.956Z,3.58
2022-10-14T10:43:07.807Z,3.50
2022-10-14T10:45:46.685Z,3.47
2022-10-14T10:48:25.985Z,3.80
2022-10-14T10:51:27.858Z,3.80
2022-10-14T10:54:07.795Z,3.80
2022-10-14T10:56:49.656Z,4.03
2022-10-14T10:59:25.479Z,3.63
2022-10-14T11:02:10.892Z,3.25
2022-10-14T11:04:45.975Z,2.38
2022-10-14T11:07:54.969Z,2.80
2022-10-14T11:10:49.439Z,2.40
2022-10-14T11:13:16.320Z,3.38
2022-10-14T11:15:48.667Z,2.58
2022-10-14T11:18:33.642Z,2.92
2022-10-14T11:21:32.345Z,3.17
2022-10-14T11:24:25.172Z,3.20
2022-10-14T11:27:10.012Z,2.45
2022-10-14T11:29:49.070Z,2.75
2022-10-14T11:32:40.150Z,2.55
2022-10-14T11:35:28.641Z,2.20
2022-10-14T11:38:18.981Z,2.33
2022-10-14T11:40:59.177Z,2.45
2022-10-14T11:43:39.461Z,2.15
2022-10-14T11:46:14.107Z,2.40
2022-10-14T11:48:56.166Z,1.90
2022-10-14T11:51:37.652Z,2.35
2022-10-14T11:54:30.054Z,2.28
2022-10-14T11:57:06.315Z,1.92
2022-10-14T12:03:02.953Z,2.47
2022-10-14T12:05:59.411Z,2.10
2022-10-14T12:08:34.854Z,2.50
2022-10-14T12:11:09.271Z,2.50
2022-10-14T12:13:43.530Z,2.20
2022-10-14T12:16:20.060Z,2.20
2022-10-14T12:18:55.763Z,2.38
2022-10-14T12:21:35.896Z,2.35
2022-10-14T12:24:17.241Z,2.10
2022-10-14T12:27:04.697Z,2.10
2022-10-14T12:29:33.268Z,2.17
2022-10-14T12:32:04.433Z,2.17
2022-10-14T12:39:17.275Z,2.85
2022-10-14T12:41:56.768Z,2.22
2022-10-14T12:44:24.309Z,2.10
2022-10-14T12:46:52.586Z,2.53
2022-10-14T12:49:21.451Z,2.50
2022-10-14T12:52:19.237Z,2.38
2022-10-14T12:54:47.413Z,1.95
2022-10-14T12:57:26.396Z,1.77
2022-10-14T12:59:53.287Z,2.22
2022-10-14T13:02:32.964Z,2.45
2022-10-14T13:05:07.780Z,1.98
2022-10-14T13:07:46.172Z,2.10
2022-10-14T13:10:31.805Z,2.33
2022-10-14T13:13:00.577Z,2.38
2022-10-14T13:15:49.365Z,3.08
2022-10-14T13:18:41.328Z,3.20
2022-10-14T13:21:09.086Z,2.90
2022-10-14T13:23:40.632Z,3.33
2022-10-14T13:26:28.796Z,5.70
2022-10-14T13:29:02.890Z,5.30
2022-10-14T13:31:30.358Z,3.97
2022-10-14T13:34:18.630Z,3.05
2022-10-14T13:37:07.614Z,2.78
2022-10-14T13:39:36.062Z,2.30
2022-10-14T13:42:02.973Z,1.98
2022-10-14T13:44:29.901Z,1.40
2022-10-14T13:46:59.345Z,1.60
2022-10-14T13:49:34.829Z,1.23
2022-10-14T13:52:08.541Z,1.67
2022-10-14T13:54:35.623Z,1.33
2022-10-14T14:02:42.324Z,1.60
2022-10-14T14:05:14.383Z,1.60
2022-10-14T14:08:21.761Z,1.70
2022-10-14T14:10:28.293Z,1.60
2022-10-14T14:12:55.127Z,1.30
2022-10-14T14:15:24.638Z,1.08
2022-10-14T14:17:51.631Z,1.35
2022-10-14T14:20:23.783Z,1.15
2022-10-14T14:22:53.455Z,0.90
2022-10-14T14:25:38.355Z,1.02
2022-10-14T14:28:12.716Z,1.00
2022-10-14T14:30:40.381Z,1.00
2022-10-14T14:33:10.497Z,1.00
2022-10-14T14:35:37.413Z,0.90
2022-10-14T14:38:04.468Z,1.10
2022-10-14T14:40:31.546Z,0.90
2022-10-14T14:42:59.626Z,1.00
2022-10-14T14:45:32.433Z,0.77
2022-10-14T14:48:05.248Z,0.80
2022-10-14T14:50:40.215Z,0.80
2022-10-14T14:53:32.328Z,0.80
2022-10-14T14:56:14.336Z,0.68
2022-10-14T14:58:50.904Z,1.05
2022-10-14T15:01:28.111Z,0.60
2022-10-14T15:04:13.527Z,1.00
2022-10-14T15:06:41.095Z,1.17
2022-10-14T15:09:22.150Z,0.90
2022-10-14T15:11:57.999Z,0.90
2022-10-14T15:14:33.132Z,1.05
2022-10-14T15:17:05.542Z,1.20
2022-10-14T15:19:38.385Z,0.80
2022-10-14T15:22:30.525Z,0.70
2022-10-14T15:25:11.539Z,1.00
2022-10-14T15:27:39.995Z,0.80
2022-10-14T15:30:22.762Z,1.10
2022-10-14T15:32:50.636Z,1.10
2022-10-14T15:35:18.905Z,1.42
2022-10-14T15:37:46.161Z,1.10
2022-10-14T15:40:14.936Z,1.23
2022-10-14T15:42:41.916Z,0.85
2022-10-14T15:45:09.308Z,0.90
2022-10-14T15:47:36.402Z,1.00
2022-10-14T15:50:07.555Z,0.70
2022-10-14T15:52:34.434Z,0.82
2022-10-14T15:55:01.282Z,0.65
2022-10-14T15:57:28.215Z,0.45
2022-10-14T15:59:55.180Z,0.82
2022-10-14T16:02:30.904Z,0.63
2022-10-14T16:05:18.939Z,0.60
2022-10-14T16:07:45.556Z,0.73
2022-10-14T16:10:15.481Z,0.50
2022-10-14T16:12:42.560Z,0.60
2022-10-14T16:15:29.180Z,0.70
2022-10-14T16:17:56.063Z,0.90
2022-10-14T16:20:22.988Z,0.77
2022-10-14T16:22:49.989Z,0.93
2022-10-14T16:25:39.004Z,0.70
2022-10-14T16:28:10.275Z,0.68
2022-10-14T16:30:42.037Z,0.60
2022-10-14T16:35:43.069Z,0.77
2022-10-14T16:38:11.635Z,0.90
2022-10-14T16:40:38.580Z,0.70
2022-10-14T16:43:05.581Z,0.55
2022-10-14T16:45:32.589Z,0.55
2022-10-14T16:47:59.447Z,0.60
2022-10-14T16:50:26.402Z,7.78
2022-10-14T16:53:11.971Z,2.90
2022-10-14T16:55:39.438Z,1.00
2022-10-14T16:58:06.297Z,0.70
2022-10-14T17:00:34.223Z,4.43
2022-10-14T17:03:02.179Z,1.30
2022-10-14T17:05:29.099Z,0.50
2022-10-14T17:07:56.053Z,0.80
2022-10-14T17:10:23.148Z,0.85
2022-10-14T17:12:50.015Z,2.00
2022-10-14T17:15:17.022Z,0.93
2022-10-14T17:17:44.805Z,0.82
2022-10-14T17:20:11.661Z,0.60
2022-10-14T17:22:39.208Z,0.57
2022-10-14T17:25:08.383Z,0.80
2022-10-14T17:27:35.234Z,0.65
2022-10-14T17:30:02.368Z,0.90
2022-10-14T17:32:29.383Z,1.02
2022-10-14T17:34:56.387Z,0.70
2022-10-14T17:37:23.312Z,1.10
2022-10-14T17:39:50.228Z,0.85
2022-10-14T17:42:17.234Z,0.63
2022-10-14T17:44:47.085Z,0.90
2022-10-14T17:47:14.101Z,1.42
2022-10-14T17:49:41.098Z,0.50
2022-10-14T17:52:08.089Z,0.82
2022-10-14T17:54:34.945Z,0.90
2022-10-14T17:57:01.894Z,1.45
2022-10-14T17:59:29.168Z,1.00
2022-10-14T18:02:02.769Z,0.68
2022-10-14T18:04:30.718Z,1.50
2022-10-14T18:06:58.617Z,0.73
2022-10-14T18:09:25.536Z,1.10
2022-10-14T18:12:09.572Z,1.00
2022-10-14T18:14:37.971Z,1.08
2022-10-14T18:17:05.396Z,0.98
2022-10-14T18:19:32.560Z,0.80
2022-10-14T18:21:59.658Z,1.00
2022-10-14T18:24:26.699Z,0.80
2022-10-14T18:26:53.700Z,0.93
2022-10-14T18:29:22.948Z,1.17
2022-10-14T18:34:24.716Z,0.90
2022-10-14T18:36:51.652Z,0.85
2022-10-14T18:39:20.258Z,0.75
2022-10-14T18:41:47.190Z,5.97
2022-10-14T18:44:14.217Z,0.93
2022-10-14T18:46:41.314Z,0.95
2022-10-14T18:49:09.757Z,3.03
2022-10-14T18:51:37.697Z,1.10
2022-10-14T18:54:15.678Z,1.40
2022-10-14T18:56:43.680Z,1.50
2022-10-14T18:59:15.544Z,1.20
2022-10-14T19:01:42.605Z,1.27
2022-10-14T19:04:12.432Z,0.95
2022-10-14T19:06:39.309Z,1.00
2022-10-14T19:09:06.615Z,1.17
2022-10-14T19:11:34.305Z,1.27
2022-10-14T19:14:03.328Z,0.82
2022-10-14T19:16:36.786Z,0.70
2022-10-14T19:21:39.332Z,1.00
2022-10-14T19:25:08.951Z,1.20
2022-10-14T19:27:35.700Z,2.47
2022-10-14T19:30:02.451Z,1.23
2022-10-14T19:32:29.314Z,0.90
2022-10-14T19:34:56.060Z,1.40
2022-10-14T19:37:23.019Z,1.02
2022-10-14T19:39:50.036Z,1.08
2022-10-14T19:42:16.788Z,0.93
2022-10-14T19:44:43.562Z,1.10
2022-10-14T19:47:10.551Z,0.90
2022-10-14T19:49:37.511Z,0.80
2022-10-14T19:52:04.446Z,0.80
2022-10-14T19:54:31.499Z,0.77
2022-10-14T19:56:58.345Z,0.90
2022-10-14T19:59:25.165Z,0.60
2022-10-14T20:01:52.216Z,0.82
2022-10-14T20:04:21.719Z,1.02
2022-10-14T20:06:50.743Z,1.13
2022-10-14T20:09:17.546Z,1.02
2022-10-14T20:11:44.522Z,0.90
2022-10-14T20:14:11.930Z,1.05
2022-10-14T20:16:38.782Z,0.80
2022-10-14T20:19:05.909Z,0.82
2022-10-14T20:21:32.790Z,1.05
2022-10-14T20:24:00.136Z,0.93
2022-10-14T20:26:27.071Z,0.80
2022-10-14T20:28:54.518Z,0.68
2022-10-14T20:31:22.317Z,0.70
2022-10-14T20:33:49.475Z,0.90
2022-10-14T20:36:20.689Z,0.65
2022-10-14T20:38:47.765Z,1.20
2022-10-14T20:41:16.332Z,0.90
2022-10-14T20:43:43.501Z,1.10
2022-10-14T20:46:10.275Z,0.77
2022-10-14T20:48:37.489Z,0.68
2022-10-14T20:51:05.691Z,0.50
2022-10-14T20:53:32.817Z,0.85
2022-10-14T20:56:06.862Z,0.77
2022-10-14T20:58:33.752Z,0.77
2022-10-14T21:01:04.745Z,0.88
2022-10-14T21:03:32.054Z,0.70
2022-10-14T21:06:02.761Z,0.90
2022-10-14T21:08:29.593Z,0.60
2022-10-14T21:11:00.655Z,0.70
2022-10-14T21:13:28.561Z,0.60
2022-10-14T21:15:55.753Z,0.60
2022-10-14T21:18:23.129Z,0.70
2022-10-14T21:20:50.614Z,0.50
2022-10-14T21:23:17.516Z,0.60
2022-10-14T21:25:44.832Z,0.63
2022-10-14T21:28:11.649Z,0.38
2022-10-14T21:30:41.647Z,0.95
2022-10-14T21:33:08.486Z,0.50
2022-10-14T21:35:35.355Z,0.50
2022-10-14T21:38:02.206Z,0.50
2022-10-14T21:40:28.995Z,0.60
2022-10-14T21:42:55.882Z,0.43
2022-10-14T21:45:22.668Z,0.70
2022-10-14T21:47:52.746Z,0.50
2022-10-14T21:50:20.226Z,0.40
2022-10-14T21:52:47.116Z,0.43
2022-10-14T21:55:13.995Z,0.50
2022-10-14T21:57:40.871Z,0.35
2022-10-14T22:00:08.700Z,0.52
2022-10-14T22:02:35.524Z,0.80
2022-10-14T22:05:02.339Z,0.80
2022-10-14T22:07:29.205Z,0.47
2022-10-14T22:09:56.068Z,0.50
2022-10-14T22:12:24.364Z,0.75
2022-10-14T22:14:51.276Z,0.50
2022-10-14T22:17:18.151Z,0.55
2022-10-14T22:19:44.963Z,0.40
2022-10-14T22:22:11.833Z,0.47
2022-10-14T22:24:38.730Z,0.20
2022-10-14T22:27:05.598Z,0.20
2022-10-14T22:29:32.481Z,0.30
2022-10-14T22:31:59.343Z,0.50
2022-10-14T22:34:26.206Z,0.30
2022-10-14T22:36:53.110Z,0.40
2022-10-14T22:39:19.967Z,0.43
2022-10-14T22:41:46.893Z,0.90
2022-10-14T22:44:13.803Z,0.43
2022-10-14T22:46:40.881Z,0.30
2022-10-14T22:49:07.752Z,0.20
2022-10-14T22:51:36.478Z,0.40
2022-10-14T22:54:03.507Z,0.17
2022-10-14T22:56:30.777Z,0.55
2022-10-14T22:59:02.323Z,0.47
2022-10-14T23:01:29.509Z,0.32
2022-10-14T23:03:57.037Z,0.17
2022-10-14T23:06:24.059Z,0.38
2022-10-14T23:08:51.042Z,0.40
2022-10-14T23:11:19.511Z,0.20
2022-10-14T23:13:46.557Z,0.50
2022-10-14T23:16:18.358Z,0.20
2022-10-14T23:18:45.367Z,0.32
2022-10-14T23:21:19.491Z,0.43
2022-10-14T23:23:46.792Z,0.40
2022-10-14T23:26:18.146Z,0.50
2022-10-14T23:28:51.507Z,0.60
2022-10-14T23:33:47.541Z,0.40
2022-10-14T23:36:14.580Z,0.30
2022-10-14T23:38:41.852Z,0.35
2022-10-14T23:41:09.374Z,0.40
2022-10-14T23:43:36.291Z,0.40
2022-10-14T23:46:03.207Z,0.28
2022-10-14T23:48:30.043Z,0.22
2022-10-14T23:50:57.066Z,0.20
2022-10-14T23:53:24.073Z,0.30
2022-10-14T23:55:50.947Z,0.25
2022-10-14T23:58:17.778Z,0.38
